Latest Weather Observations for PORTABLE RFSNSW04

IDN60801

Issued at 11:12 am EDT Thursday 21 November 2019 (issued every 10 minutes, with the page automatically refreshed every 10 minutes)

About weather observations | Map of weather stations | Latest weather observations for NSW | Other Formats
Station Details ID: 250051 Name: PORTABLE RFSNSW04 Lat: -30.20 Lon: 152.22 Height: 1097.0 m

Portable automatic weather stations (PAWS) are operated by other organisations, such as Fire and Emergency Services, and are included here by agreement. Portable stations may be deployed to a location for a short period and their location may be subject to change without notice. Wind observations from these stations are provided from heights of either three (3) or ten (10) metres above ground level (AGL).

Data from the previous 72 hours. | See also: Recent months for locations in New South Wales
Date/Time
EDT
Temp
°C
App
Temp
°C
Dew
Point
°C
Rel
Hum
%
Delta-T
°C
Wind Press
QNH
hPa
Press
MSL
hPa
Rain since
9am
mm
Dir  Spd
km/h
Gust
km/h
Spd
kts
Gust
kts
21/10:50am 20.6 17.0 14.3 67 3.9 N 26 35 14 19 - - 0.0
21/10:40am 20.2 15.9 14.3 69 3.6 N 30 35 16 19 - - 0.0
21/10:30am - - 14.0 - - NNW 26 32 14 17 - - 0.0
21/10:20am - - 13.9 - - NNW 30 32 16 17 - - 0.0
21/10:10am - - 14.4 - - N 26 32 14 17 - - 0.0
21/10:00am - - 14.6 - - N 26 32 14 17 - - 0.0
21/09:50am - - 14.4 - - N 26 32 14 17 - - 0.0
21/09:40am - - 14.5 - - N 19 30 10 16 - - 0.0
21/09:30am - - 14.5 - - NNE 22 26 12 14 - - 0.0
21/09:20am - - 14.5 - - N 22 30 12 16 - - 0.0
21/09:10am - - 14.5 - - N 15 22 8 12 - - 0.0
21/09:00am - - 14.7 - - N 19 22 10 12 - - 0.0
21/08:50am - - 14.8 - - N 19 26 10 14 - - 0.0
21/08:40am - - 14.7 - - NNE 26 30 14 16 - - 0.0
21/08:30am - - 15.0 - - N 22 32 12 17 - - 0.0
21/08:20am - - 14.7 - - N 19 26 10 14 - - 0.0
21/08:10am - - 14.8 - - N 19 26 10 14 - - 0.0
21/08:00am - - 14.6 - - N 22 30 12 16 - - 0.0
21/07:50am - - 14.6 - - N 22 26 12 14 - - 0.0
21/07:40am - - 14.6 - - N 19 26 10 14 - - 0.0
21/07:30am - - 14.5 - - N 19 22 10 12 - - 0.0
21/07:20am - - 14.4 - - NNW 15 22 8 12 - - 0.0
21/07:10am - - 14.4 - - N 19 26 10 14 - - 0.0
21/07:00am - - 14.4 - - N 19 22 10 12 - - 0.0
21/06:50am - - 14.4 - - N 15 22 8 12 - - 0.0
21/06:40am - - 14.3 - - N 15 19 8 10 - - 0.0
21/06:30am - - 14.2 - - N 15 19 8 10 - - 0.0
21/06:20am - - 14.0 - - N 7 7 4 4 - - 0.0
21/06:10am - - 13.9 - - N 7 11 4 6 - - 0.0
21/06:00am - - 13.9 - - N 4 11 2 6 - - 0.0
21/05:50am - - 13.8 - - NNW 7 15 4 8 - - 0.0
21/05:40am - - 13.5 - - CALM 0 4 0 2 - - 0.0
21/05:30am - - 13.3 - - SW 4 7 2 4 - - 0.0
21/05:20am - - 13.7 - - NNW 4 11 2 6 - - 0.0
21/05:10am - - 13.4 - - N 11 15 6 8 - - 0.0
21/05:00am - - 13.1 - - CALM 0 0 0 0 - - 0.0
21/04:30am 14.2 14.4 13.2 94 0.6 ENE 4 7 2 4 - - 0.0
21/04:20am 14.4 14.6 13.1 92 0.8 ENE 4 7 2 4 - - 0.0
21/04:10am 14.6 14.2 13.1 91 0.9 NNE 7 7 4 4 - - 0.0
21/04:00am 14.6 13.4 12.9 89 1.0 NNE 11 15 6 8 - - 0.0
21/03:50am 14.5 13.3 12.8 89 1.0 N 11 11 6 6 - - 0.0
21/03:40am 14.4 13.1 12.6 89 1.0 N 11 15 6 8 - - 0.0
21/03:30am 14.3 13.7 12.4 88 1.1 NNE 7 11 4 6 - - 0.0
21/03:20am 14.4 14.4 12.5 88 1.1 ESE 4 7 2 4 - - 0.0
21/03:10am 14.5 14.6 12.6 88 1.1 E 4 7 2 4 - - 0.0
21/03:00am 14.7 14.8 12.8 88 1.1 N 4 7 2 4 - - 0.0
21/02:50am 14.7 13.5 12.7 88 1.2 N 11 15 6 8 - - 0.0
21/02:40am 14.8 12.8 12.7 87 1.2 N 15 15 8 8 - - 0.0
21/02:30am 14.8 13.5 12.4 85 1.4 NNE 11 11 6 6 - - 0.0
21/02:20am 14.7 14.1 12.4 86 1.3 NNE 7 11 4 6 - - 0.0
21/02:10am 14.6 13.3 12.4 87 1.3 NNE 11 15 6 8 - - 0.0
21/02:00am 14.6 14.0 12.3 86 1.3 NNE 7 11 4 6 - - 0.0
21/01:50am 14.7 13.3 12.2 85 1.4 NNE 11 11 6 6 - - 0.0
21/01:40am 14.8 13.4 12.3 85 1.4 NE 11 15 6 8 - - 0.0
21/01:30am 14.7 14.1 12.3 85 1.4 NE 7 7 4 4 - - 0.0
21/01:20am 14.7 14.1 12.4 86 1.3 NE 7 7 4 4 - - 0.0
21/01:10am 14.9 15.0 12.7 87 1.3 ENE 4 7 2 4 - - 0.0
21/01:00am 15.2 14.7 12.7 85 1.5 ENE 7 11 4 6 - - 0.0
21/12:50am 15.4 14.2 12.7 84 1.6 E 11 15 6 8 - - 0.0
21/12:40am 15.5 14.3 12.9 84 1.5 E 11 19 6 10 - - 0.0
21/12:30am 15.8 14.7 13.1 84 1.6 E 11 15 6 8 - - 0.0
21/12:20am 15.9 14.8 13.2 84 1.6 ENE 11 15 6 8 - - 0.0
21/12:10am 15.9 14.8 13.0 83 1.7 ENE 11 15 6 8 - - 0.0
21/12:00am 15.9 14.8 13.2 84 1.6 NE 11 15 6 8 - - 0.0
 
Date/Time
EDT
Temp
°C
App
Temp
°C
Dew
Point
°C
Rel
Hum
%
Delta-T
°C
Wind Press
QNH
hPa
Press
MSL
hPa
Rain since
9am
mm
Dir  Spd
km/h
Gust
km/h
Spd
kts
Gust
kts
20/11:50pm 15.9 15.6 13.3 84 1.5 NE 7 11 4 6 - - 0.0
20/11:40pm 15.8 14.8 13.3 85 1.5 NNE 11 11 6 6 - - 0.0
20/11:30pm 15.7 15.4 13.3 86 1.4 N 7 11 4 6 - - 0.0
20/11:20pm 15.8 16.1 13.3 85 1.5 NE 4 11 2 6 - - 0.0
20/11:10pm 15.8 15.5 13.4 86 1.4 N 7 11 4 6 - - 0.0
20/11:00pm 15.9 15.7 13.6 86 1.4 N 7 15 4 8 - - 0.0
20/10:50pm 16.0 15.8 13.5 85 1.5 NE 7 11 4 6 - - 0.0
20/10:40pm 16.0 15.1 13.6 86 1.4 NE 11 11 6 6 - - 0.0
20/10:30pm 15.9 15.0 13.7 87 1.3 NE 11 19 6 10 - - 0.0
20/10:20pm 15.9 15.0 13.7 87 1.3 ENE 11 19 6 10 - - 0.0
20/10:10pm 15.9 14.3 13.8 87 1.2 ENE 15 15 8 8 - - 0.0
20/10:00pm 15.9 15.1 13.9 88 1.2 E 11 15 6 8 - - 0.0
20/09:50pm 16.0 15.2 14.0 88 1.2 ENE 11 15 6 8 - - 0.0
20/09:40pm 16.1 15.3 14.0 87 1.3 ENE 11 15 6 8 - - 0.0
20/09:30pm 16.2 14.7 14.1 87 1.3 ENE 15 15 8 8 - - 0.0
20/09:20pm 16.3 15.5 14.1 87 1.3 ENE 11 15 6 8 - - 0.0
20/09:10pm 16.4 15.7 14.2 87 1.3 ENE 11 15 6 8 - - 0.0
20/09:00pm 16.6 15.9 14.3 86 1.4 ENE 11 15 6 8 - - 0.0
20/08:50pm 16.8 15.3 14.3 85 1.5 ENE 15 19 8 10 - - 0.0
20/08:40pm 17.0 15.5 14.3 84 1.6 ENE 15 19 8 10 - - 0.0
20/08:30pm 17.2 15.7 14.3 83 1.7 E 15 19 8 10 - - 0.0
20/08:20pm 17.4 16.7 14.3 82 1.9 ENE 11 15 6 8 - - 0.0
20/08:10pm 17.7 17.0 14.3 80 2.1 NE 11 19 6 10 - - 0.0
20/08:00pm 17.9 16.4 14.2 79 2.2 ENE 15 19 8 10 - - 0.0
20/07:50pm 18.2 16.0 14.3 78 2.4 ENE 19 26 10 14 - - 0.0
20/07:40pm 18.6 17.1 14.2 75 2.7 ENE 15 19 8 10 - - 0.0
20/07:30pm 19.0 17.3 13.7 71 3.2 ENE 15 22 8 12 - - 0.0
20/07:20pm 19.3 16.7 13.1 67 3.7 ENE 19 22 10 12 - - 0.0
20/07:10pm 19.7 17.0 12.8 64 4.1 ENE 19 26 10 14 - - 0.0
20/07:00pm 20.1 17.3 12.6 62 4.4 ENE 19 22 10 12 - - 0.0
20/06:50pm 20.4 17.4 12.0 58 4.9 ENE 19 22 10 12 - - 0.0
20/06:40pm 20.8 17.7 11.6 55 5.4 ENE 19 22 10 12 - - 0.0
20/06:30pm 21.1 18.7 11.3 53 5.7 ENE 15 19 8 10 - - 0.0
20/06:20pm 21.4 18.8 10.8 50 6.1 ENE 15 19 8 10 - - 0.0
20/06:10pm 21.5 18.0 10.3 49 6.4 E 19 22 10 12 - - 0.0
20/06:00pm 21.7 17.5 9.8 46 6.8 E 22 30 12 16 - - 0.0
20/05:50pm 21.9 17.6 9.3 44 7.1 E 22 30 12 16 - - 0.0
20/05:40pm 22.2 18.4 9.0 43 7.4 E 19 22 10 12 - - 0.0
20/05:30pm 22.4 18.5 8.8 41 7.6 E 19 26 10 14 - - 0.0
20/05:20pm 22.5 18.6 8.7 41 7.7 E 19 26 10 14 - - 0.0
20/05:10pm 22.6 17.4 8.7 41 7.8 E 26 32 14 17 - - 0.0
20/05:00pm 22.6 16.6 8.7 41 7.8 E 30 35 16 19 - - 0.0
20/04:50pm 23.1 17.9 8.7 39 8.1 E 26 30 14 16 - - 0.0
20/04:40pm 23.2 19.4 9.2 41 7.9 E 19 22 10 12 - - 0.0
20/04:30pm 23.1 17.2 8.9 40 8.0 ESE 30 35 16 19 - - 0.0
20/04:20pm 23.3 17.3 8.7 39 8.2 E 30 35 16 19 - - 0.0
20/04:10pm 23.8 17.2 7.8 36 8.9 ESE 32 46 17 25 - - 0.0
20/04:00pm 24.2 16.8 6.9 33 9.5 ESE 35 39 19 21 - - 0.0
20/03:50pm 24.8 17.9 6.5 31 10.0 ESE 32 39 17 21 - - 0.0
20/03:40pm 25.4 19.5 5.9 28 10.6 E 26 32 14 17 - - 0.0
20/03:30pm 25.4 19.6 6.4 29 10.4 E 26 30 14 16 - - 0.0
20/03:20pm 25.6 19.1 6.4 29 10.5 ENE 30 32 16 17 - - 0.0
20/03:10pm 25.8 18.8 5.8 27 10.8 ENE 32 35 17 19 - - 0.0
20/03:00pm 26.7 19.6 5.4 25 11.5 E 32 39 17 21 - - 0.0
20/02:50pm 27.4 20.2 5.0 24 12.1 ENE 32 39 17 21 - - 0.0
20/02:40pm 27.7 20.4 4.7 23 12.4 ENE 32 39 17 21 - - 0.0
20/02:30pm 27.8 19.9 4.6 22 12.5 E 35 46 19 25 - - 0.0
20/02:20pm 28.3 21.2 5.6 23 12.4 ENE 32 39 17 21 - - 0.0
20/02:10pm 28.2 21.1 5.4 23 12.4 E 32 35 17 19 - - 0.0
20/02:00pm 28.1 21.1 5.8 24 12.2 E 32 39 17 21 - - 0.0
20/01:50pm 29.0 23.2 6.1 23 12.7 ENE 26 32 14 17 - - 0.0
20/01:40pm 29.9 23.2 5.8 22 13.4 ENE 30 32 16 17 - - 0.0
20/01:30pm 32.4 27.8 5.6 18 15.0 ESE 19 32 10 17 - - 0.0
20/01:20pm 32.2 23.8 -6.0 8 17.6 SSW 30 39 16 21 - - 0.0
20/01:10pm 32.2 22.8 -6.6 8 17.7 S 35 43 19 23 - - 0.0
20/01:00pm 32.6 24.9 -6.6 7 18.0 S 26 39 14 21 - - 0.0
20/12:50pm 32.2 25.2 -6.7 8 17.8 S 22 35 12 19 - - 0.0
20/12:40pm 31.8 22.4 -6.7 8 17.5 S 35 46 19 25 - - 0.0
20/12:30pm 32.1 25.7 -7.1 7 17.8 S 19 30 10 16 - - 0.0
20/12:20pm 31.7 24.7 -7.0 8 17.5 SSW 22 35 12 19 - - 0.0
20/12:10pm 31.7 23.3 -6.4 8 17.4 S 30 50 16 27 - - 0.0
20/12:00pm 31.4 23.7 -6.1 8 17.2 W 26 32 14 17 - - 0.0
20/11:50am 31.7 24.8 -6.0 8 17.4 WSW 22 26 12 14 - - 0.0
20/11:40am 31.1 25.6 -5.0 9 16.8 SSW 15 22 8 12 - - 0.0
20/11:30am 30.9 22.1 -6.5 8 17.0 S 32 43 17 23 - - 0.0
20/11:20am 30.7 23.8 -6.3 8 16.8 SW 22 32 12 17 - - 0.0
20/11:10am 30.7 23.1 -5.1 9 16.6 SW 26 39 14 21 - - 0.0
20/11:00am 30.2 21.5 -4.9 10 16.3 S 32 39 17 21 - - 0.0
20/10:50am 29.8 21.5 -4.8 10 16.0 SW 30 43 16 23 - - 0.0
20/10:40am 29.8 21.6 -3.7 11 15.8 SW 30 35 16 19 - - 0.0
20/10:30am 29.8 21.6 -3.7 11 15.8 SSW 30 39 16 21 - - 0.0
20/10:20am 29.8 21.6 -4.2 10 15.9 SSW 30 35 16 19 - - 0.0
20/10:10am 29.6 22.1 -4.4 10 15.8 SW 26 39 14 21 - - 0.0
20/10:00am 29.3 23.4 -2.3 12 15.2 SW 19 30 10 16 - - 0.0
20/09:50am 28.8 - -2.2 13 14.9 - - - - - - - 0.0
20/09:40am 28.5 - -0.7 15 14.4 - - - - - - - 0.0
20/09:30am 27.9 - 0.2 16 13.8 - - - - - - - 0.0
20/09:20am 27.4 - 0.6 17 13.4 - - - - - - - 0.0
20/09:00am 26.4 - 0.2 18 12.9 - - - - - - - 0.0
20/08:50am 25.8 - 0.7 19 12.4 - - - - - - - 0.0
20/08:40am 25.3 - 0.6 20 12.2 - - - - - - - 0.0
20/08:30am 25.0 - 0.8 20 11.9 - - - - - - - 0.0
20/08:20am 25.0 - 0.6 20 12.0 - - - - - - - 0.0
20/08:10am 24.4 - 1.0 21 11.5 - - - - - - - 0.0
20/08:00am 23.8 - 1.0 22 11.2 - - - - - - - 0.0
20/07:50am 23.3 - 1.4 23 10.8 - - - - - - - 0.0
20/07:40am 22.8 - 2.1 25 10.3 - - - - - - - 0.0
20/07:30am 22.2 - 2.6 27 9.8 - - - - - - - 0.0
20/07:20am 21.6 - 4.0 31 9.0 - - - - - - - 0.0
20/07:10am 20.8 - 3.5 32 8.7 - - - - - - - 0.0
20/07:00am 20.3 - 3.2 32 8.6 - - - - - - - 0.0
20/06:50am 19.3 - 2.8 33 8.1 - - - - - - - 0.0
20/06:40am 18.5 - 2.3 34 7.9 - - - - - - - 0.0
20/06:30am 17.9 - 2.0 34 7.6 - - - - - - - 0.0
20/06:20am 17.5 - 2.0 35 7.4 - - - - - - - 0.0
20/06:10am 17.2 - 2.4 37 7.1 - - - - - - - 0.0
20/06:00am 16.8 - 1.9 36 7.1 - - - - - - - 0.0
20/05:50am 17.0 - 2.3 37 7.1 - - - - - - - 0.0
20/05:40am 17.1 - 2.2 36 7.1 - - - - - - - 0.0
20/05:30am 17.1 - 2.1 36 7.2 - - - - - - - 0.0
20/05:20am 17.2 - 2.0 36 7.3 - - - - - - - 0.0
20/05:10am 17.2 - 1.9 35 7.3 - - - - - - - 0.0
20/05:00am 17.1 - 1.7 35 7.3 - - - - - - - 0.0
20/04:50am 17.0 - 1.6 35 7.3 - - - - - - - 0.0
20/04:40am 16.8 - 1.6 36 7.2 - - - - - - - 0.0
20/04:30am 16.8 - 1.6 36 7.2 - - - - - - - 0.0
20/04:20am 17.0 - 1.6 35 7.3 - - - - - - - 0.0
20/04:10am 16.9 - 1.6 35 7.2 - - - - - - - 0.0
20/04:00am 16.9 - 1.6 35 7.2 - - - - - - - 0.0
20/03:50am 16.8 - 1.6 36 7.2 - - - - - - - 0.0
20/03:40am 16.5 - 1.8 37 7.0 - - - - - - - 0.0
20/03:30am 16.5 - 2.0 37 6.9 - - - - - - - 0.0
20/03:20am 16.6 - 2.2 38 6.9 - - - - - - - 0.0
20/03:10am 16.6 - 2.2 38 6.9 - - - - - - - 0.0
20/03:00am 16.5 - 2.7 39 6.7 - - - - - - - 0.0
20/02:50am 16.4 - 3.1 41 6.5 - - - - - - - 0.0
20/02:40am 16.6 - 3.4 41 6.5 - - - - - - - 0.0
 
Date/Time
EDT
Temp
°C
App
Temp
°C
Dew
Point
°C
Rel
Hum
%
Delta-T
°C
Wind Press
QNH
hPa
Press
MSL
hPa
Rain since
9am
mm
Dir  Spd
km/h
Gust
km/h
Spd
kts
Gust
kts
19/02:10pm 29.4 - -3.4 11 15.5 - - - - - - - 0.0
19/02:00pm 29.0 - -3.0 12 15.2 - - - - - - - 0.0
19/01:50pm 28.6 - -2.0 13 14.7 - - - - - - - 0.0
19/01:40pm 29.0 - -2.2 13 15.0 - - - - - - - 0.0
19/01:30pm 29.4 - -2.0 13 15.2 - - - - - - - 0.0
19/01:20pm 28.6 - -2.1 13 14.8 - - - - - - - 0.0
19/01:10pm 28.4 - -2.7 13 14.8 - - - - - - - 0.0
19/01:00pm 28.3 - -2.6 13 14.7 - - - - - - - 0.0
19/12:50pm 28.4 - -1.6 14 14.5 - - - - - - - 0.0
19/12:40pm 28.6 - -3.2 12 15.0 - - - - - - - 0.0
19/12:30pm 28.0 - -2.0 14 14.4 - - - - - - - 0.0
19/12:20pm 27.9 - -2.1 14 14.4 - - - - - - - 0.0
19/12:10pm 27.7 - -2.5 13 14.3 - - - - - - - 0.0
19/12:00pm 28.1 - -1.7 14 14.4 - - - - - - - 0.0
19/11:50am 27.8 - -2.0 14 14.3 - - - - - - - 0.0
19/11:40am 27.4 - -0.8 16 13.8 - - - - - - - 0.0
19/11:30am 27.3 - -1.5 15 13.9 - - - - - - - 0.0
19/11:20am 26.8 - -1.9 15 13.7 - - - - - - - 0.0
19/11:10am 26.8 - -2.1 15 13.7 - - - - - - - 0.0
19/11:00am 26.4 - -1.2 16 13.3 - - - - - - - 0.0
19/10:50am 26.2 - -1.2 16 13.2 - - - - - - - 0.0
19/10:40am 26.1 - -0.8 17 13.0 - - - - - - - 0.0
19/10:30am 25.6 - 0.2 19 12.5 - - - - - - - 0.0
19/10:20am 25.2 - 0.9 20 12.0 - - - - - - - 0.0
19/10:10am 25.2 - -0.3 18 12.4 - - - - - - - 0.0
19/10:00am 24.5 - 0.1 20 11.9 - - - - - - - 0.0
19/09:50am 24.4 - 1.1 21 11.5 - - - - - - - 0.0
19/09:40am 23.7 - 2.6 25 10.7 - - - - - - - 0.0
19/09:30am 23.3 - 3.4 27 10.2 - - - - - - - 0.0
19/09:20am 22.9 - 3.8 28 9.8 - - - - - - - 0.0
19/09:10am 22.8 - 3.1 27 10.0 - - - - - - - 0.0
19/09:00am 21.8 - 4.0 31 9.1 - - - - - - - 0.0
19/08:50am 21.0 - 3.9 32 8.7 - - - - - - - 0.0
19/08:40am 20.4 - 4.4 35 8.2 - - - - - - - 0.0
19/08:30am 19.9 - 4.6 36 7.8 - - - - - - - 0.0
19/08:20am 19.3 - 4.9 38 7.4 - - - - - - - 0.0
19/08:10am 19.4 - 4.4 37 7.6 - - - - - - - 0.0
19/08:00am 19.1 - 3.9 36 7.6 - - - - - - - 0.0
19/07:50am 18.9 - 3.4 35 7.7 - - - - - - - 0.0
19/07:40am 18.6 - 3.4 36 7.5 - - - - - - - 0.0
19/07:30am 18.2 - 3.5 37 7.3 - - - - - - - 0.0
19/07:20am 17.4 - 3.9 40 6.7 - - - - - - - 0.0
19/07:10am 16.6 - 3.4 41 6.5 - - - - - - - 0.0
19/07:00am 15.5 - 3.4 44 5.9 - - - - - - - 0.0
19/06:50am 14.7 - 4.9 52 4.9 - - - - - - - 0.0
19/06:40am 13.7 - 5.2 56 4.2 - - - - - - - 0.0
19/06:30am 13.2 - 6.2 62 3.5 - - - - - - - 0.0
19/06:20am 12.1 - 6.1 67 3.0 - - - - - - - 0.0
19/06:10am 11.8 - 7.3 74 2.3 - - - - - - - 0.0
19/06:00am 11.8 - 8.0 77 2.0 - - - - - - - 0.0
19/05:50am 11.7 - 8.7 82 1.6 - - - - - - - 0.0
19/05:40am 11.6 - 8.6 82 1.6 - - - - - - - 0.0
19/05:30am 11.3 - 8.7 84 1.4 - - - - - - - 0.0
19/05:20am 11.4 - 8.7 83 1.4 - - - - - - - 0.0
19/05:10am 11.4 - 8.5 82 1.5 - - - - - - - 0.0
19/05:00am 11.3 - 8.6 83 1.4 - - - - - - - 0.0
19/04:50am 11.4 - 8.5 82 1.5 - - - - - - - 0.0
19/04:40am 11.2 - 8.7 84 1.3 - - - - - - - 0.0
19/04:30am 11.3 - 8.7 84 1.4 - - - - - - - 0.0
19/04:20am 11.2 - 8.8 85 1.3 - - - - - - - 0.0
19/04:10am 11.4 - 8.7 83 1.4 - - - - - - - 0.0
19/04:00am 11.5 - 8.8 83 1.4 - - - - - - - 0.0
19/03:50am 11.6 - 8.6 82 1.6 - - - - - - - 0.0
19/03:40am 12.1 - 8.6 79 1.8 - - - - - - - 0.0
19/03:30am 12.3 - 8.6 78 2.0 - - - - - - - 0.0
19/03:20am 12.1 - 8.4 78 1.9 - - - - - - - 0.0
19/03:10am 12.1 - 8.3 77 2.0 - - - - - - - 0.0
19/03:00am 11.6 - 8.5 81 1.6 - - - - - - - 0.0
19/02:50am 12.4 - 8.6 77 2.0 - - - - - - - 0.0
19/02:40am 12.5 - 8.3 75 2.2 - - - - - - - 0.0
19/02:30am 12.3 - 8.6 78 2.0 - - - - - - - 0.0
19/02:20am 12.0 - 8.8 81 1.7 - - - - - - - 0.0
19/02:10am 11.8 - 8.6 81 1.7 - - - - - - - 0.0
19/02:00am 11.9 - 9.0 82 1.5 - - - - - - - 0.0
19/01:50am 12.3 - 8.9 80 1.8 - - - - - - - 0.0
19/01:40am 12.5 - 8.9 79 1.9 - - - - - - - 0.0
19/01:30am 12.4 - 8.8 79 1.9 - - - - - - - 0.0
19/01:20am 12.2 - 8.8 80 1.8 - - - - - - - 0.0
19/01:10am 12.5 - 8.9 79 1.9 - - - - - - - 0.0
19/01:00am 12.7 - 8.9 78 2.0 - - - - - - - 0.0
19/12:50am 12.7 - 8.8 77 2.1 - - - - - - - 0.0
19/12:40am 12.8 - 8.7 76 2.2 - - - - - - - 0.0
19/12:30am 12.9 - 8.8 76 2.2 - - - - - - - 0.0
19/12:20am 12.9 - 8.5 74 2.3 - - - - - - - 0.0
19/12:10am 12.7 - 8.4 75 2.3 - - - - - - - 0.0
19/12:00am 12.7 - 8.7 76 2.1 - - - - - - - 0.0
 
Date/Time
EDT
Temp
°C
App
Temp
°C
Dew
Point
°C
Rel
Hum
%
Delta-T
°C
Wind Press
QNH
hPa
Press
MSL
hPa
Rain since
9am
mm
Dir  Spd
km/h
Gust
km/h
Spd
kts
Gust
kts
18/11:50pm 12.8 - 8.3 74 2.4 - - - - - - - 0.0
18/11:40pm 12.9 - 8.3 73 2.4 - - - - - - - 0.0
18/11:30pm 13.0 - 8.5 74 2.4 - - - - - - - 0.0
18/11:20pm 13.1 - 8.6 74 2.4 - - - - - - - 0.0
18/11:10pm 13.3 - 8.6 73 2.5 - - - - - - - 0.0
18/11:00pm 13.5 - 8.3 71 2.8 - - - - - - - 0.0
18/10:50pm 13.3 - 8.5 72 2.5 - - - - - - - 0.0
18/10:40pm 13.7 - 8.6 71 2.7 - - - - - - - 0.0
18/10:30pm 14.0 - 8.5 69 2.9 - - - - - - - 0.0
18/10:20pm 14.2 - 8.4 68 3.1 - - - - - - - 0.0
18/10:10pm 14.4 - 8.4 67 3.2 - - - - - - - 0.0
18/10:00pm 14.7 - 8.3 65 3.4 - - - - - - - 0.0
18/09:50pm 14.8 - 8.3 65 3.5 - - - - - - - 0.0
18/09:40pm 14.8 - 8.2 64 3.5 - - - - - - - 0.0
18/09:30pm 15.0 - 8.2 64 3.6 - - - - - - - 0.0
18/09:20pm 15.5 - 8.2 62 3.9 - - - - - - - 0.0
18/09:10pm 15.7 - 8.2 61 4.0 - - - - - - - 0.0
18/09:00pm 16.0 - 8.1 59 4.2 - - - - - - - 0.0
18/08:50pm 16.3 - 8.1 58 4.4 - - - - - - - 0.0
18/08:40pm 16.5 - 8.0 57 4.6 - - - - - - - 0.0
18/08:30pm 16.7 - 7.9 56 4.7 - - - - - - - 0.0
18/08:20pm 16.8 - 7.9 55 4.8 - - - - - - - 0.0
18/08:10pm 17.1 - 8.0 55 4.9 - - - - - - - 0.0
18/08:00pm 17.3 - 8.0 54 5.0 - - - - - - - 0.0
18/07:50pm 17.6 - 7.9 53 5.2 - - - - - - - 0.0
18/07:40pm 17.8 - 7.8 52 5.4 - - - - - - - 0.0
18/07:30pm 18.2 - 7.8 50 5.6 - - - - - - - 0.0
18/07:20pm 18.6 - 7.9 49 5.8 - - - - - - - 0.0
18/07:10pm 19.3 - 7.8 47 6.2 - - - - - - - 0.0
18/07:00pm 20.1 - 7.8 45 6.7 - - - - - - - 0.0
18/06:50pm 20.6 - 7.5 42 7.1 - - - - - - - 0.0
18/06:40pm 20.8 - 7.6 42 7.2 - - - - - - - 0.0
18/06:30pm 21.0 - 7.6 42 7.3 - - - - - - - 0.0
18/06:20pm 21.5 - 7.6 40 7.6 - - - - - - - 0.0
18/06:10pm 21.4 - 7.5 40 7.6 - - - - - - - 0.0
18/06:00pm 21.7 - 7.6 40 7.7 - - - - - - - 0.0
18/05:50pm 21.9 - 7.3 39 8.0 - - - - - - - 0.0
18/05:40pm 22.1 - 7.1 38 8.2 - - - - - - - 0.0
18/05:30pm 22.2 - 7.1 37 8.2 - - - - - - - 0.0
18/05:20pm 22.6 - 7.0 36 8.5 - - - - - - - 0.0
18/05:10pm 22.5 - 7.1 37 8.4 - - - - - - - 0.0
18/05:00pm 22.8 - 6.9 36 8.6 - - - - - - - 0.0
18/04:50pm 23.1 - 6.8 35 8.9 - - - - - - - 0.0
18/04:40pm 23.2 - 6.5 34 9.0 - - - - - - - 0.0
18/04:30pm 23.5 - 6.5 33 9.2 - - - - - - - 0.0
18/04:20pm 23.2 - 6.1 33 9.2 - - - - - - - 0.0
18/04:10pm 23.5 - 6.1 32 9.4 - - - - - - - 0.0
18/04:00pm 23.7 - 6.5 33 9.3 - - - - - - - 0.0
18/03:50pm 23.7 - 6.0 32 9.5 - - - - - - - 0.0
18/03:40pm 23.5 - 6.2 32 9.3 - - - - - - - 0.0
18/03:30pm 23.6 - 6.4 33 9.3 - - - - - - - 0.0
18/03:20pm 23.5 - 6.1 32 9.4 - - - - - - - 0.0
18/03:10pm 23.2 - 6.6 34 9.0 - - - - - - - 0.0
18/03:00pm 22.9 - 6.6 35 8.8 - - - - - - - 0.0
18/02:50pm 22.7 - 6.6 35 8.7 - - - - - - - 0.0
18/02:40pm 23.1 - 6.8 35 8.9 - - - - - - - 0.0
18/02:30pm 22.3 - 6.7 36 8.4 - - - - - - - 0.0
18/02:20pm 22.3 - 6.9 37 8.4 - - - - - - - 0.0
18/02:10pm 22.5 - 6.9 36 8.5 - - - - - - - 0.0
18/02:00pm 22.2 - 6.6 36 8.4 - - - - - - - 0.0
18/01:50pm 21.8 - 6.6 37 8.2 - - - - - - - 0.0
18/01:40pm 21.5 - 6.9 38 7.9 - - - - - - - 0.0
18/01:30pm 21.5 - 6.7 38 8.0 - - - - - - - 0.0
18/01:20pm 21.3 - 7.3 40 7.6 - - - - - - - 0.0
18/01:10pm 20.9 - 7.1 40 7.5 - - - - - - - 0.0
18/01:00pm 20.8 - 7.1 41 7.4 - - - - - - - 0.0
18/12:50pm 21.1 - 7.2 40 7.5 - - - - - - - 0.0
18/12:40pm 21.0 - 6.9 40 7.6 - - - - - - - 0.0
18/12:30pm 19.5 - 7.0 44 6.7 - - - - - - - 0.0
18/12:20pm 19.6 - 7.1 44 6.7 - - - - - - - 0.0
18/12:10pm 19.1 - 7.3 46 6.3 - - - - - - - 0.0
18/12:00pm 19.8 - 8.1 46 6.4 - - - - - - - 0.0
18/11:50am 19.5 - 6.9 44 6.7 - - - - - - - 0.0
18/11:40am 19.0 - 6.1 43 6.8 - - - - - - - 0.0
18/11:30am 18.6 - 8.2 50 5.7 - - - - - - - 0.0
18/11:20am 17.6 - 8.0 53 5.2 - - - - - - - 0.0

Other formats

Comma delimited format used in spreadsheet applications
http://www.bom.gov.au/fwo/IDN60801/IDN60801.99107.axf

JavaScript Object Notation format (JSON) in row-major order
http://www.bom.gov.au/fwo/IDN60801/IDN60801.99107.json

Data quality

Most of these data are generated automatically and are frequently updated. Quality checks on data are not normally performed. It is possible for incorrect values to appear. Refer to information at About Latest Weather Observations and please check the disclaimer before using these data.